Time;durP1;ratioP1;P1;durP2;ratioP2;P2;SDS_P1;SDS_P2;PMS_P1;PMS_P2;Temp;Humidity;BMP_temperature;BMP_pressure;BME280_temperature;BME280_humidity;BME280_pressure;Samples;Min_cycle;Max_cycle;Signal;HPM_P1;HPM_P2
2023/10/12 00:00:24;;;;;;;106.55;15.38;;;;;;;;;;5101032;28;20478;-41
2023/10/12 00:02:48;;;;;;;110.22;16.23;;;;;;;;;;5102486;28;20128;-40
2023/10/12 00:05:18;;;;;;;103.07;16.35;;;;;;;;;;5103073;28;20791;-40
2023/10/12 00:07:49;;;;;;;109.15;17.13;;;;;;;;;;5092251;28;20051;-41
2023/10/12 00:12:47;;;;;;;130.05;18.77;;;;;;;;;;5092898;28;20552;-41
2023/10/12 00:17:52;;;;;;;94.07;15.07;;;;;;;;;;5101825;28;20024;-42
2023/10/12 00:23:09;;;;;;;100.47;16.13;;;;;;;;;;5101335;28;20051;-41
2023/10/12 00:25:58;;;;;;;115.15;16.38;;;;;;;;;;5101677;28;20027;-41
2023/10/12 00:28:38;;;;;;;92.57;14.40;;;;;;;;;;5106284;28;20498;-40
2023/10/12 00:31:12;;;;;;;81.50;14.45;;;;;;;;;;5102078;28;20042;-41
2023/10/12 00:33:39;;;;;;;99.28;14.57;;;;;;;;;;5080330;28;20390;-39
2023/10/12 00:36:19;;;;;;;103.68;14.98;;;;;;;;;;5102055;28;20050;-51
2023/10/12 00:38:47;;;;;;;102.40;14.75;;;;;;;;;;5091210;28;20386;-41
2023/10/12 00:41:17;;;;;;;109.78;15.73;;;;;;;;;;5099574;28;20030;-43
2023/10/12 00:49:21;;;;;;;86.40;13.85;;;;;;;;;;5110690;28;20149;-40
2023/10/12 00:52:11;;;;;;;80.83;14.27;;;;;;;;;;5111391;28;20040;-41
2023/10/12 00:57:06;;;;;;;79.97;14.02;;;;;;;;;;5110966;28;20027;-39
2023/10/12 00:59:37;;;;;;;83.80;14.60;;;;;;;;;;5110419;28;20031;-41
2023/10/12 01:02:17;;;;;;;68.32;13.00;;;;;;;;;;5110478;28;20762;-40
2023/10/12 01:04:48;;;;;;;99.07;14.77;;;;;;;;;;5106994;28;20035;-46
2023/10/12 01:07:25;;;;;;;79.85;14.43;;;;;;;;;;5110501;28;20087;-44
2023/10/12 01:10:12;;;;;;;91.43;14.30;;;;;;;;;;5108990;28;20035;-45
2023/10/12 01:12:39;;;;;;;80.28;13.20;;;;;;;;;;5109724;28;20027;-43
2023/10/12 01:15:11;;;;;;;84.05;14.38;;;;;;;;;;5111614;28;20470;-44
2023/10/12 01:17:40;;;;;;;77.90;13.57;;;;;;;;;;5111797;28;20024;-46
2023/10/12 01:20:11;;;;;;;70.13;14.10;;;;;;;;;;5109049;28;20047;-44
2023/10/12 01:22:39;;;;;;;64.05;13.48;;;;;;;;;;5110607;28;20127;-44
2023/10/12 01:25:42;;;;;;;79.65;13.88;;;;;;;;;;5110692;28;20031;-44
2023/10/12 01:28:06;;;;;;;76.47;13.80;;;;;;;;;;5103250;28;20493;-46
2023/10/12 01:30:36;;;;;;;74.13;13.77;;;;;;;;;;5110180;28;20038;-44
2023/10/12 01:33:04;;;;;;;76.07;14.05;;;;;;;;;;5111484;28;20027;-43
2023/10/12 01:35:38;;;;;;;71.45;12.95;;;;;;;;;;5111449;28;20104;-44
2023/10/12 01:38:08;;;;;;;85.03;14.52;;;;;;;;;;5111516;28;20063;-41
2023/10/12 01:43:15;;;;;;;88.65;14.63;;;;;;;;;;5111253;28;20090;-44
2023/10/12 01:45:43;;;;;;;78.45;14.88;;;;;;;;;;5111358;28;20027;-46
2023/10/12 01:50:41;;;;;;;66.03;12.63;;;;;;;;;;5108813;28;20123;-38
2023/10/12 01:53:29;;;;;;;68.82;14.00;;;;;;;;;;5109761;28;21772;-39
2023/10/12 01:55:56;;;;;;;71.20;12.48;;;;;;;;;;5109645;28;20452;-41
2023/10/12 01:58:27;;;;;;;73.82;13.45;;;;;;;;;;5100364;28;20043;-37
2023/10/12 02:01:07;;;;;;;69.43;13.30;;;;;;;;;;5080203;28;20019;-37
2023/10/12 02:03:43;;;;;;;77.95;13.88;;;;;;;;;;5103934;28;20035;-37
2023/10/12 02:06:17;;;;;;;80.28;14.00;;;;;;;;;;5093282;28;20032;-37
2023/10/12 02:11:11;;;;;;;67.63;13.73;;;;;;;;;;5102073;28;20456;-38
2023/10/12 02:13:41;;;;;;;57.38;12.13;;;;;;;;;;5101480;28;20047;-38
2023/10/12 02:16:12;;;;;;;73.35;13.70;;;;;;;;;;5100944;28;20660;-37
2023/10/12 02:18:40;;;;;;;72.57;13.80;;;;;;;;;;5104431;28;20136;-36
2023/10/12 02:34:21;;;;;;;57.70;12.48;;;;;;;;;;5104513;28;20051;-36
2023/10/12 02:37:16;;;;;;;72.07;14.30;;;;;;;;;;5103133;28;20028;-37
2023/10/12 02:39:43;;;;;;;59.38;12.20;;;;;;;;;;5105259;28;20093;-37
2023/10/12 02:42:18;;;;;;;50.55;12.68;;;;;;;;;;5103421;28;20417;-37
2023/10/12 02:47:22;;;;;;;54.35;12.20;;;;;;;;;;5104485;28;20387;-37
2023/10/12 02:52:32;;;;;;;62.20;12.07;;;;;;;;;;5103119;28;20515;-37
2023/10/12 02:55:18;;;;;;;65.50;13.15;;;;;;;;;;5104489;28;20023;-37
2023/10/12 02:58:07;;;;;;;62.75;13.05;;;;;;;;;;5105844;28;20042;-36
2023/10/12 03:03:07;;;;;;;52.78;12.98;;;;;;;;;;5104122;28;20040;-37
2023/10/12 03:05:46;;;;;;;59.25;12.75;;;;;;;;;;5105627;28;20043;-37
2023/10/12 03:08:23;;;;;;;50.63;11.88;;;;;;;;;;5103037;28;20385;-36
2023/10/12 03:13:34;;;;;;;47.58;11.07;;;;;;;;;;5102965;28;20027;-37
2023/10/12 03:18:46;;;;;;;47.15;11.13;;;;;;;;;;5104447;28;20032;-38
2023/10/12 03:21:14;;;;;;;43.20;10.80;;;;;;;;;;5102512;28;20096;-37
2023/10/12 03:23:56;;;;;;;41.35;10.32;;;;;;;;;;5103409;28;20047;-38
2023/10/12 03:28:50;;;;;;;51.13;10.95;;;;;;;;;;5101665;28;20038;-38
2023/10/12 03:31:26;;;;;;;44.53;9.63;;;;;;;;;;5103772;28;20028;-38
2023/10/12 03:33:56;;;;;;;42.90;10.30;;;;;;;;;;5104449;28;20019;-38
2023/10/12 03:36:25;;;;;;;40.63;10.13;;;;;;;;;;5104649;28;20051;-37
2023/10/12 03:41:54;;;;;;;46.95;10.93;;;;;;;;;;5068175;28;20111;-38
2023/10/12 03:44:36;;;;;;;46.83;10.25;;;;;;;;;;5103077;28;20040;-37
2023/10/12 03:52:52;;;;;;;34.97;9.00;;;;;;;;;;5103146;28;20043;-38
2023/10/12 03:55:16;;;;;;;37.40;9.25;;;;;;;;;;5103175;28;20028;-37
2023/10/12 03:57:51;;;;;;;37.97;9.20;;;;;;;;;;5103133;28;20044;-38
2023/10/12 04:05:21;;;;;;;41.55;10.15;;;;;;;;;;5102647;28;20036;-37
2023/10/12 04:13:07;;;;;;;34.92;8.63;;;;;;;;;;5103327;28;20058;-38
2023/10/12 04:16:09;;;;;;;32.78;8.52;;;;;;;;;;5101893;28;20063;-38
2023/10/12 04:18:28;;;;;;;29.95;8.23;;;;;;;;;;5102348;28;20482;-37
2023/10/12 04:20:59;;;;;;;37.17;8.75;;;;;;;;;;5101613;28;20066;-37
2023/10/12 04:23:49;;;;;;;32.53;9.07;;;;;;;;;;5083541;28;20051;-37
2023/10/12 04:28:56;;;;;;;29.80;8.07;;;;;;;;;;5102556;28;20509;-38
2023/10/12 04:36:27;;;;;;;29.95;8.20;;;;;;;;;;5100380;28;20531;-38
2023/10/12 04:47:20;;;;;;;29.75;8.30;;;;;;;;;;5097093;28;20116;-39
2023/10/12 04:52:17;;;;;;;31.63;7.88;;;;;;;;;;5099725;28;20028;-37
2023/10/12 04:57:26;;;;;;;25.98;8.07;;;;;;;;;;5101438;28;20115;-37
2023/10/12 05:07:57;;;;;;;23.60;7.30;;;;;;;;;;5100919;28;20039;-38
2023/10/12 05:10:31;;;;;;;19.63;7.40;;;;;;;;;;5100937;28;20447;-38
2023/10/12 05:13:05;;;;;;;21.38;6.50;;;;;;;;;;5099556;28;20067;-38
2023/10/12 05:16:26;;;;;;;22.00;6.78;;;;;;;;;;5100371;28;20032;-38
2023/10/12 05:18:20;;;;;;;21.85;6.90;;;;;;;;;;5085215;28;20044;-38
2023/10/12 05:20:47;;;;;;;22.65;6.75;;;;;;;;;;5100594;28;20359;-37
2023/10/12 05:23:14;;;;;;;20.45;6.75;;;;;;;;;;5101747;28;20098;-37
2023/10/12 05:26:07;;;;;;;25.98;7.22;;;;;;;;;;5101298;28;20063;-37
2023/10/12 05:28:37;;;;;;;15.32;6.10;;;;;;;;;;5102284;28;20160;-38
2023/10/12 05:36:05;;;;;;;17.98;5.97;;;;;;;;;;5101153;28;20111;-38
2023/10/12 05:38:35;;;;;;;19.20;6.53;;;;;;;;;;5100096;28;20039;-37
2023/10/12 05:41:08;;;;;;;18.60;5.90;;;;;;;;;;5101345;28;20039;-37
2023/10/12 05:43:41;;;;;;;19.25;6.40;;;;;;;;;;5102171;28;20036;-38
2023/10/12 05:46:16;;;;;;;17.17;5.45;;;;;;;;;;5102053;28;20024;-38
2023/10/12 05:48:46;;;;;;;15.63;5.88;;;;;;;;;;5102059;28;20451;-38
2023/10/12 05:51:19;;;;;;;15.18;5.78;;;;;;;;;;5102258;28;20037;-38
2023/10/12 05:53:48;;;;;;;17.63;5.65;;;;;;;;;;5104659;28;20032;-38
2023/10/12 05:56:18;;;;;;;20.00;5.82;;;;;;;;;;5104201;28;20043;-38
2023/10/12 05:58:46;;;;;;;17.48;5.93;;;;;;;;;;5104978;28;20032;-38
2023/10/12 06:01:31;;;;;;;16.60;5.25;;;;;;;;;;5105561;28;20062;-38
2023/10/12 06:04:08;;;;;;;17.40;5.57;;;;;;;;;;5104424;28;20047;-38
2023/10/12 06:06:41;;;;;;;17.45;4.90;;;;;;;;;;5104160;28;20028;-38
2023/10/12 06:09:13;;;;;;;19.58;6.00;;;;;;;;;;5104363;28;20366;-38
2023/10/12 06:11:44;;;;;;;15.30;4.90;;;;;;;;;;5098864;28;20037;-38
2023/10/12 06:14:15;;;;;;;13.68;5.03;;;;;;;;;;5103917;28;20032;-38
2023/10/12 06:16:42;;;;;;;19.52;5.18;;;;;;;;;;5105355;28;20042;-38
2023/10/12 06:19:29;;;;;;;14.52;5.20;;;;;;;;;;5105882;28;20032;-37
2023/10/12 06:21:59;;;;;;;15.32;4.97;;;;;;;;;;5103192;28;20048;-38
2023/10/12 06:24:35;;;;;;;13.50;5.03;;;;;;;;;;5104421;28;20213;-38
2023/10/12 06:27:38;;;;;;;14.82;4.95;;;;;;;;;;5104554;28;20038;-37
2023/10/12 06:30:06;;;;;;;13.32;4.45;;;;;;;;;;5098991;28;20109;-38
2023/10/12 06:32:33;;;;;;;20.83;4.40;;;;;;;;;;5103465;28;20097;-38
2023/10/12 06:45:54;;;;;;;11.57;4.50;;;;;;;;;;5103792;28;20024;-37
2023/10/12 06:51:06;;;;;;;12.93;3.90;;;;;;;;;;5103681;28;20086;-38
2023/10/12 06:53:34;;;;;;;15.90;4.13;;;;;;;;;;5102991;28;20027;-38
2023/10/12 06:56:21;;;;;;;11.45;4.25;;;;;;;;;;5104804;28;20042;-38
2023/10/12 07:02:09;;;;;;;11.15;3.78;;;;;;;;;;5011359;28;20388;-38
2023/10/12 07:04:46;;;;;;;8.83;3.43;;;;;;;;;;5011449;28;20046;-38
2023/10/12 07:07:15;;;;;;;10.35;3.65;;;;;;;;;;5072473;28;20449;-38
2023/10/12 07:09:46;;;;;;;12.50;4.22;;;;;;;;;;5104685;28;20370;-38
2023/10/12 07:12:14;;;;;;;12.13;4.10;;;;;;;;;;5104870;28;20027;-37
2023/10/12 07:14:52;;;;;;;8.70;3.83;;;;;;;;;;5103490;28;20434;-38
2023/10/12 07:17:31;;;;;;;9.30;3.20;;;;;;;;;;5103185;28;20042;-37
2023/10/12 07:19:59;;;;;;;11.35;3.83;;;;;;;;;;5103069;28;20024;-37
2023/10/12 07:22:26;;;;;;;9.10;3.53;;;;;;;;;;5103141;28;20067;-38
2023/10/12 07:24:53;;;;;;;10.07;3.78;;;;;;;;;;5104893;28;20425;-37
2023/10/12 07:27:23;;;;;;;9.60;3.50;;;;;;;;;;5104355;28;20390;-38
2023/10/12 07:32:47;;;;;;;9.57;3.30;;;;;;;;;;5103303;28;20042;-38
2023/10/12 07:35:31;;;;;;;10.90;3.55;;;;;;;;;;5102315;28;20042;-37
2023/10/12 07:37:59;;;;;;;8.68;3.47;;;;;;;;;;5102629;28;20044;-38
2023/10/12 07:40:34;;;;;;;9.00;3.22;;;;;;;;;;5103228;28;20055;-38
2023/10/12 07:43:10;;;;;;;9.57;2.72;;;;;;;;;;5102729;28;20040;-38
2023/10/12 07:45:47;;;;;;;8.80;3.42;;;;;;;;;;5102275;28;20042;-38
2023/10/12 07:48:29;;;;;;;9.23;3.08;;;;;;;;;;5102010;28;20039;-37
2023/10/12 07:53:50;;;;;;;9.50;3.53;;;;;;;;;;5103197;28;20405;-38
2023/10/12 07:56:17;;;;;;;;;;;;;;;;;;5102477;28;20107;-38
2023/10/12 07:58:57;;;;;;;7.45;2.80;;;;;;;;;;5103246;28;19918;-38
2023/10/12 08:04:01;;;;;;;9.85;2.65;;;;;;;;;;5101958;28;20047;-37
2023/10/12 08:06:46;;;;;;;9.43;3.28;;;;;;;;;;5102649;28;20059;-37
2023/10/12 08:09:47;;;;;;;7.47;2.75;;;;;;;;;;5085747;28;20092;-37
2023/10/12 08:12:27;;;;;;;9.80;3.33;;;;;;;;;;5103114;28;20440;-37
2023/10/12 08:15:07;;;;;;;9.10;2.40;;;;;;;;;;5103273;28;20027;-38
2023/10/12 08:17:34;;;;;;;6.30;2.50;;;;;;;;;;5103620;28;20059;-38
2023/10/12 08:22:51;;;;;;;6.53;2.40;;;;;;;;;;5102737;28;20517;-38
2023/10/12 08:25:27;;;;;;;7.25;2.60;;;;;;;;;;5101392;28;20042;-38
2023/10/12 08:28:05;;;;;;;8.25;2.60;;;;;;;;;;5101449;28;20036;-38
2023/10/12 08:30:56;;;;;;;6.28;2.15;;;;;;;;;;5101278;28;20044;-38
2023/10/12 08:33:48;;;;;;;6.97;2.40;;;;;;;;;;5102037;28;20096;-38
2023/10/12 08:39:08;;;;;;;6.68;2.50;;;;;;;;;;5102335;28;20024;-38
2023/10/12 08:44:21;;;;;;;5.55;2.10;;;;;;;;;;5101715;28;20452;-38
2023/10/12 08:46:56;;;;;;;9.38;2.50;;;;;;;;;;5101914;28;20583;-37
2023/10/12 08:49:52;;;;;;;6.72;2.30;;;;;;;;;;5101853;28;20126;-38
2023/10/12 08:52:25;;;;;;;6.18;2.22;;;;;;;;;;5101135;28;20040;-38
2023/10/12 08:54:54;;;;;;;4.90;2.08;;;;;;;;;;5100876;28;20122;-38
2023/10/12 08:57:34;;;;;;;4.43;2.00;;;;;;;;;;5102466;28;20509;-38
2023/10/12 09:02:52;;;;;;;5.10;1.80;;;;;;;;;;5102509;28;20039;-38
2023/10/12 09:13:29;;;;;;;6.07;2.15;;;;;;;;;;5100274;28;20133;-38
2023/10/12 09:16:00;;;;;;;5.22;1.90;;;;;;;;;;5100435;28;20047;-38
2023/10/12 09:18:43;;;;;;;10.18;2.40;;;;;;;;;;5112272;28;20132;-38
2023/10/12 09:21:28;;;;;;;4.50;2.17;;;;;;;;;;5108848;28;20134;-38
2023/10/12 09:24:38;;;;;;;4.60;2.05;;;;;;;;;;5097445;28;20039;-41
2023/10/12 09:26:55;;;;;;;4.25;1.83;;;;;;;;;;5082025;28;20055;-38
2023/10/12 09:29:29;;;;;;;6.80;1.85;;;;;;;;;;5073638;28;20039;-38
2023/10/12 09:34:46;;;;;;;7.00;2.05;;;;;;;;;;5101647;28;20039;-37
2023/10/12 09:37:16;;;;;;;10.77;2.05;;;;;;;;;;5099978;28;20040;-37
2023/10/12 09:39:46;;;;;;;10.10;2.88;;;;;;;;;;5101163;28;20375;-38
2023/10/12 09:42:27;;;;;;;8.15;1.77;;;;;;;;;;5101829;28;20059;-38
2023/10/12 09:45:19;;;;;;;6.25;1.75;;;;;;;;;;5108919;28;20138;-37
2023/10/12 09:47:52;;;;;;;6.75;2.08;;;;;;;;;;5111234;28;20104;-37
2023/10/12 09:50:27;;;;;;;8.10;2.03;;;;;;;;;;5111890;28;20040;-37
2023/10/12 09:52:57;;;;;;;8.55;2.10;;;;;;;;;;5111867;28;20118;-37
2023/10/12 09:55:32;;;;;;;7.10;1.80;;;;;;;;;;5112006;28;20449;-37
2023/10/12 09:58:14;;;;;;;5.70;1.80;;;;;;;;;;5111870;28;20089;-37
2023/10/12 10:01:01;;;;;;;12.70;1.85;;;;;;;;;;5108156;28;20111;-37
2023/10/12 10:03:42;;;;;;;7.88;1.85;;;;;;;;;;5094135;28;20043;-41
2023/10/12 10:06:19;;;;;;;5.93;1.88;;;;;;;;;;5101675;28;20034;-36
2023/10/12 10:09:02;;;;;;;12.82;2.38;;;;;;;;;;5101536;28;20097;-36
2023/10/12 10:11:30;;;;;;;6.05;2.03;;;;;;;;;;5101236;28;20042;-35
2023/10/12 10:13:57;;;;;;;6.63;1.88;;;;;;;;;;5098593;28;20035;-41
2023/10/12 10:16:24;;;;;;;8.07;1.92;;;;;;;;;;5101125;28;20032;-42
2023/10/12 10:19:13;;;;;;;7.50;1.98;;;;;;;;;;5104828;28;20027;-39
2023/10/12 10:21:49;;;;;;;8.13;1.92;;;;;;;;;;5110557;28;20062;-42
2023/10/12 10:24:19;;;;;;;7.60;1.83;;;;;;;;;;5109833;28;20051;-42
2023/10/12 10:26:53;;;;;;;14.25;1.80;;;;;;;;;;5111322;28;20039;-37
2023/10/12 10:29:21;;;;;;;6.53;1.98;;;;;;;;;;5111186;28;20084;-37
2023/10/12 10:31:52;;;;;;;11.35;2.13;;;;;;;;;;5111302;28;20538;-37
2023/10/12 10:34:25;;;;;;;6.90;2.03;;;;;;;;;;5110053;28;20520;-36
2023/10/12 10:36:57;;;;;;;7.80;1.80;;;;;;;;;;5111577;28;20028;-36
2023/10/12 10:44:25;;;;;;;7.13;1.90;;;;;;;;;;5093230;28;20104;-41
2023/10/12 10:46:57;;;;;;;7.05;1.63;;;;;;;;;;5094374;28;20032;-41
2023/10/12 10:49:31;;;;;;;10.07;1.80;;;;;;;;;;5094702;28;20044;-40
2023/10/12 10:52:13;;;;;;;11.55;1.92;;;;;;;;;;5094453;28;20031;-38
2023/10/12 10:54:56;;;;;;;11.80;2.45;;;;;;;;;;5093415;28;20039;-39
2023/10/12 10:57:31;;;;;;;7.70;2.17;;;;;;;;;;5094547;28;20074;-37
2023/10/12 10:59:58;;;;;;;10.18;1.90;;;;;;;;;;5094383;28;20036;-39
2023/10/12 11:02:25;;;;;;;7.78;1.95;;;;;;;;;;5094292;28;20497;-45
2023/10/12 11:04:55;;;;;;;12.57;1.90;;;;;;;;;;5104455;28;20039;-38
2023/10/12 11:07:22;;;;;;;9.98;1.90;;;;;;;;;;5107781;28;20076;-39
2023/10/12 11:12:21;;;;;;;12.95;2.20;;;;;;;;;;5114727;28;20035;-39
2023/10/12 11:15:01;;;;;;;7.30;1.90;;;;;;;;;;5108277;28;20016;-39
2023/10/12 11:17:30;;;;;;;12.77;2.13;;;;;;;;;;5101433;28;20115;-39
2023/10/12 11:19:58;;;;;;;8.35;1.52;;;;;;;;;;5103069;28;20084;-38
2023/10/12 11:22:25;;;;;;;9.88;2.22;;;;;;;;;;5113204;28;20055;-39
2023/10/12 11:24:54;;;;;;;7.05;1.50;;;;;;;;;;5106738;28;20111;-40
2023/10/12 11:27:34;;;;;;;15.07;2.05;;;;;;;;;;5101070;28;20052;-39
2023/10/12 11:32:53;;;;;;;12.32;2.08;;;;;;;;;;5112549;28;20054;-38
2023/10/12 11:35:45;;;;;;;9.98;1.95;;;;;;;;;;5113704;28;20500;-38
2023/10/12 11:38:18;;;;;;;11.03;1.70;;;;;;;;;;5112892;28;20429;-39
2023/10/12 11:40:48;;;;;;;11.02;1.63;;;;;;;;;;5113798;28;20344;-39
2023/10/12 11:43:15;;;;;;;11.30;2.45;;;;;;;;;;5113371;28;20138;-39
2023/10/12 11:46:15;;;;;;;17.80;2.25;;;;;;;;;;5111852;28;20031;-39
2023/10/12 11:48:42;;;;;;;12.77;1.92;;;;;;;;;;5053468;28;20386;-38
2023/10/12 11:51:13;;;;;;;8.63;1.75;;;;;;;;;;5098815;28;20030;-39
2023/10/12 11:53:41;;;;;;;13.23;2.10;;;;;;;;;;5113888;28;20111;-39
2023/10/12 11:58:38;;;;;;;9.18;1.92;;;;;;;;;;5100867;28;20394;-40
2023/10/12 12:01:08;;;;;;;8.35;1.50;;;;;;;;;;5098959;28;20035;-39
2023/10/12 12:03:39;;;;;;;11.75;1.65;;;;;;;;;;5100419;28;20040;-40
2023/10/12 12:06:12;;;;;;;8.65;2.10;;;;;;;;;;5105538;28;20391;-40
2023/10/12 12:08:40;;;;;;;8.45;1.85;;;;;;;;;;5099941;28;20504;-40
2023/10/12 12:11:09;;;;;;;12.10;1.75;;;;;;;;;;5093204;28;20040;-40
2023/10/12 12:13:42;;;;;;;12.77;2.15;;;;;;;;;;5099123;28;20036;-39
2023/10/12 12:16:10;;;;;;;14.15;2.13;;;;;;;;;;5093141;28;20131;-40
2023/10/12 12:18:37;;;;;;;10.13;1.80;;;;;;;;;;5093165;28;20386;-39
2023/10/12 12:21:14;;;;;;;21.45;2.35;;;;;;;;;;5092911;28;20467;-40
2023/10/12 12:23:41;;;;;;;16.27;2.40;;;;;;;;;;5092919;28;20047;-40
2023/10/12 12:26:09;;;;;;;17.20;2.20;;;;;;;;;;5092981;28;20024;-40
2023/10/12 12:28:43;;;;;;;16.20;2.38;;;;;;;;;;5092902;28;20039;-39
2023/10/12 12:31:13;;;;;;;16.30;2.53;;;;;;;;;;5092925;28;20479;-39
2023/10/12 12:33:43;;;;;;;20.25;2.40;;;;;;;;;;5092914;28;20489;-39
2023/10/12 12:36:12;;;;;;;19.55;2.22;;;;;;;;;;5092787;28;20032;-39
2023/10/12 12:41:18;;;;;;;16.83;2.60;;;;;;;;;;5092770;28;20036;-39
2023/10/12 12:43:51;;;;;;;15.18;2.20;;;;;;;;;;5092738;28;20036;-39
2023/10/12 12:46:19;;;;;;;17.20;2.10;;;;;;;;;;5092702;28;20020;-39
2023/10/12 12:48:52;;;;;;;13.15;2.05;;;;;;;;;;5092623;28;20386;-39
2023/10/12 12:51:20;;;;;;;12.07;2.55;;;;;;;;;;5092576;28;20386;-39
2023/10/12 12:53:48;;;;;;;12.23;2.08;;;;;;;;;;5092564;28;20024;-39
2023/10/12 12:56:15;;;;;;;20.98;2.33;;;;;;;;;;5092495;28;20127;-39
2023/10/12 12:58:46;;;;;;;9.40;2.25;;;;;;;;;;5092380;28;20024;-39
2023/10/12 13:01:17;;;;;;;10.63;2.15;;;;;;;;;;5092267;28;20039;-39
2023/10/12 13:03:44;;;;;;;10.32;1.90;;;;;;;;;;5092283;28;20482;-39
2023/10/12 13:06:12;;;;;;;12.85;1.80;;;;;;;;;;5092319;28;20081;-39
2023/10/12 13:08:39;;;;;;;15.55;2.03;;;;;;;;;;5092225;28;20024;-39
2023/10/12 13:11:06;;;;;;;11.05;2.08;;;;;;;;;;5092227;28;20047;-39
2023/10/12 13:13:34;;;;;;;7.97;1.90;;;;;;;;;;5092247;28;20035;-39
2023/10/12 13:16:03;;;;;;;10.68;2.05;;;;;;;;;;5092221;28;20043;-39
2023/10/12 13:18:32;;;;;;;18.15;2.30;;;;;;;;;;5092019;28;20024;-39
2023/10/12 13:21:00;;;;;;;10.60;1.77;;;;;;;;;;5092112;28;20040;-40
2023/10/12 13:23:27;;;;;;;10.68;2.17;;;;;;;;;;5091872;28;20028;-39
2023/10/12 13:25:54;;;;;;;12.23;2.33;;;;;;;;;;5091980;28;20108;-39
2023/10/12 13:28:21;;;;;;;8.80;1.92;;;;;;;;;;5092038;28;20032;-39
2023/10/12 13:30:48;;;;;;;13.20;2.20;;;;;;;;;;5091899;28;20038;-39
2023/10/12 13:33:16;;;;;;;14.40;1.95;;;;;;;;;;5091856;28;20050;-39
2023/10/12 13:35:46;;;;;;;10.73;2.05;;;;;;;;;;5091901;28;20063;-39
2023/10/12 13:38:15;;;;;;;8.15;1.70;;;;;;;;;;5092048;28;20039;-39
2023/10/12 13:40:46;;;;;;;9.10;2.10;;;;;;;;;;5091687;28;20052;-40
2023/10/12 13:43:21;;;;;;;9.38;1.98;;;;;;;;;;5091557;28;20043;-39
2023/10/12 13:45:49;;;;;;;12.10;1.80;;;;;;;;;;5091579;28;20032;-39
2023/10/12 13:48:21;;;;;;;13.52;1.88;;;;;;;;;;5091755;28;20406;-39
2023/10/12 13:51:00;;;;;;;8.02;1.67;;;;;;;;;;5091595;28;20036;-39
2023/10/12 13:53:27;;;;;;;7.13;1.95;;;;;;;;;;5091457;28;20085;-39
2023/10/12 13:55:56;;;;;;;6.75;1.50;;;;;;;;;;5091589;28;20028;-39
2023/10/12 13:58:24;;;;;;;9.02;1.98;;;;;;;;;;5091550;28;20040;-39
2023/10/12 14:00:53;;;;;;;10.13;1.80;;;;;;;;;;5091502;28;20059;-39
2023/10/12 14:03:29;;;;;;;11.00;1.88;;;;;;;;;;5091345;28;20036;-39
2023/10/12 14:05:57;;;;;;;14.02;1.67;;;;;;;;;;5091544;28;20028;-40
2023/10/12 14:08:24;;;;;;;9.43;1.83;;;;;;;;;;5091556;28;20044;-39
2023/10/12 14:10:51;;;;;;;7.32;2.05;;;;;;;;;;5091402;28;20494;-39
2023/10/12 14:13:18;;;;;;;7.65;1.48;;;;;;;;;;5091832;28;20024;-39
2023/10/12 14:15:47;;;;;;;6.30;1.35;;;;;;;;;;5095462;28;20051;-39
2023/10/12 14:18:17;;;;;;;5.45;1.58;;;;;;;;;;5095358;28;20486;-39
2023/10/12 14:20:45;;;;;;;6.82;1.60;;;;;;;;;;5090261;28;20036;-39
2023/10/12 14:23:13;;;;;;;6.13;1.58;;;;;;;;;;5095138;28;20085;-39
2023/10/12 14:25:47;;;;;;;9.38;1.73;;;;;;;;;;5095406;28;20032;-39
2023/10/12 14:28:17;;;;;;;8.85;1.45;;;;;;;;;;5094099;28;20479;-39
2023/10/12 14:30:47;;;;;;;8.07;1.65;;;;;;;;;;5094070;28;20039;-39
2023/10/12 14:33:15;;;;;;;8.85;1.70;;;;;;;;;;5095156;28;20039;-39
2023/10/12 14:35:43;;;;;;;5.72;1.40;;;;;;;;;;5095231;28;20029;-39
2023/10/12 14:38:17;;;;;;;5.47;1.67;;;;;;;;;;5095154;28;20024;-39
2023/10/12 14:40:45;;;;;;;7.03;1.42;;;;;;;;;;5095101;28;20032;-39
2023/10/12 14:43:13;;;;;;;6.72;1.23;;;;;;;;;;5094818;28;20547;-39
2023/10/12 14:45:45;;;;;;;10.38;1.98;;;;;;;;;;5095048;28;20490;-39
2023/10/12 14:48:12;;;;;;;7.22;1.55;;;;;;;;;;5095179;28;20028;-40
2023/10/12 14:50:45;;;;;;;8.77;1.40;;;;;;;;;;5094947;28;20024;-39
2023/10/12 14:53:16;;;;;;;8.73;1.70;;;;;;;;;;5094723;28;20108;-39
2023/10/12 14:55:51;;;;;;;7.72;1.63;;;;;;;;;;5094806;28;20024;-39
2023/10/12 14:58:19;;;;;;;8.13;1.60;;;;;;;;;;5094659;28;20036;-39
2023/10/12 15:00:46;;;;;;;6.03;1.23;;;;;;;;;;5094650;28;20024;-40
2023/10/12 15:03:16;;;;;;;4.00;1.10;;;;;;;;;;5094413;28;20032;-39
2023/10/12 15:05:43;;;;;;;5.13;1.30;;;;;;;;;;5094532;28;20165;-39
2023/10/12 15:08:11;;;;;;;4.68;1.38;;;;;;;;;;5094575;28;20024;-39
2023/10/12 15:10:43;;;;;;;5.22;1.50;;;;;;;;;;5094573;28;20054;-39
2023/10/12 15:13:14;;;;;;;6.70;1.58;;;;;;;;;;5094347;28;20466;-39
2023/10/12 15:15:47;;;;;;;7.25;1.48;;;;;;;;;;5094347;28;20032;-39
2023/10/12 15:18:14;;;;;;;5.00;1.30;;;;;;;;;;5094394;28;20060;-39
2023/10/12 15:20:44;;;;;;;4.90;1.10;;;;;;;;;;5094324;28;20032;-39
2023/10/12 15:23:12;;;;;;;5.18;1.20;;;;;;;;;;5093849;28;20433;-39
2023/10/12 15:25:39;;;;;;;6.65;1.38;;;;;;;;;;5092873;28;20486;-39
2023/10/12 15:28:06;;;;;;;4.00;1.00;;;;;;;;;;5094186;28;20024;-39
2023/10/12 15:30:34;;;;;;;5.25;1.38;;;;;;;;;;5094154;28;20024;-39
2023/10/12 15:33:03;;;;;;;3.78;1.33;;;;;;;;;;5094078;28;20036;-39
2023/10/12 15:35:31;;;;;;;4.47;1.13;;;;;;;;;;5093873;28;20038;-39
2023/10/12 15:37:58;;;;;;;4.68;1.50;;;;;;;;;;5093955;28;20482;-39
2023/10/12 15:40:26;;;;;;;3.65;1.10;;;;;;;;;;5093969;28;20024;-39
2023/10/12 15:42:54;;;;;;;4.35;1.00;;;;;;;;;;5093693;28;20028;-39
2023/10/12 15:45:22;;;;;;;3.15;1.10;;;;;;;;;;5093865;28;20515;-39
2023/10/12 15:47:49;;;;;;;5.10;1.10;;;;;;;;;;5075495;28;20390;-39
2023/10/12 15:50:16;;;;;;;2.30;0.85;;;;;;;;;;5093699;28;20063;-39
2023/10/12 15:52:44;;;;;;;4.28;1.20;;;;;;;;;;5093625;28;20066;-39
2023/10/12 15:55:14;;;;;;;4.38;1.02;;;;;;;;;;5093578;28;20498;-39
2023/10/12 15:57:44;;;;;;;4.38;1.10;;;;;;;;;;5093646;28;20099;-39
2023/10/12 16:00:33;;;;;;;4.60;1.02;;;;;;;;;;5093621;28;20024;-39
2023/10/12 16:03:00;;;;;;;4.60;1.00;;;;;;;;;;5092839;28;20036;-40
2023/10/12 16:05:28;;;;;;;3.53;1.50;;;;;;;;;;5093427;28;20039;-39
2023/10/12 16:07:57;;;;;;;4.10;1.00;;;;;;;;;;5093389;28;20028;-39
2023/10/12 16:10:28;;;;;;;3.15;1.00;;;;;;;;;;5093276;28;20028;-39
2023/10/12 16:12:55;;;;;;;2.55;0.90;;;;;;;;;;5093195;28;20031;-39
2023/10/12 16:15:24;;;;;;;4.60;1.20;;;;;;;;;;5093293;28;20382;-39
2023/10/12 16:17:51;;;;;;;2.22;0.90;;;;;;;;;;5093053;28;20032;-39
2023/10/12 16:20:20;;;;;;;4.28;0.90;;;;;;;;;;5074962;28;20032;-39
2023/10/12 16:22:47;;;;;;;3.72;1.08;;;;;;;;;;5092712;28;20130;-39
2023/10/12 16:25:19;;;;;;;5.88;0.85;;;;;;;;;;5074703;28;20040;-39
2023/10/12 16:27:46;;;;;;;1.83;0.83;;;;;;;;;;5093071;28;20052;-39
2023/10/12 16:30:14;;;;;;;3.10;0.80;;;;;;;;;;5092922;28;20266;-39
2023/10/12 16:32:43;;;;;;;3.53;0.98;;;;;;;;;;5092817;28;20028;-39
2023/10/12 16:35:11;;;;;;;2.97;0.80;;;;;;;;;;5092707;28;20519;-39
2023/10/12 16:37:38;;;;;;;3.58;1.00;;;;;;;;;;5092297;28;20501;-40
2023/10/12 16:40:06;;;;;;;2.00;0.80;;;;;;;;;;5092733;28;20024;-39
2023/10/12 16:42:36;;;;;;;6.40;1.05;;;;;;;;;;5092671;28;20109;-39
2023/10/12 16:45:08;;;;;;;6.90;1.30;;;;;;;;;;5092567;28;20394;-39
2023/10/12 16:47:36;;;;;;;5.53;1.05;;;;;;;;;;5092670;28;20040;-39
2023/10/12 16:50:04;;;;;;;3.00;0.70;;;;;;;;;;5092629;28;20036;-39
2023/10/12 16:52:31;;;;;;;6.93;1.17;;;;;;;;;;5092341;28;20035;-39
2023/10/12 16:54:59;;;;;;;3.17;0.82;;;;;;;;;;5092450;28;20071;-39
2023/10/12 16:57:27;;;;;;;5.25;1.00;;;;;;;;;;5092291;28;20039;-39
2023/10/12 16:59:54;;;;;;;7.60;1.02;;;;;;;;;;5092310;28;20074;-39
2023/10/12 17:02:21;;;;;;;3.97;0.90;;;;;;;;;;5092340;28;20035;-39
2023/10/12 17:04:52;;;;;;;2.58;0.88;;;;;;;;;;5092280;28;20032;-39
2023/10/12 17:07:23;;;;;;;2.67;0.70;;;;;;;;;;5092281;28;20027;-40
2023/10/12 17:09:51;;;;;;;2.55;0.80;;;;;;;;;;5092006;28;20032;-39
2023/10/12 17:12:19;;;;;;;2.22;0.70;;;;;;;;;;5092095;28;20024;-39
2023/10/12 17:14:46;;;;;;;3.08;0.90;;;;;;;;;;5092004;28;20043;-39
2023/10/12 17:17:13;;;;;;;4.40;1.25;;;;;;;;;;5092166;28;20386;-39
2023/10/12 17:19:40;;;;;;;3.75;0.80;;;;;;;;;;5091938;28;20481;-39
2023/10/12 17:22:08;;;;;;;2.83;1.05;;;;;;;;;;5091735;28;20089;-39
2023/10/12 17:24:35;;;;;;;3.00;0.85;;;;;;;;;;5091956;28;20039;-39
2023/10/12 17:27:07;;;;;;;5.15;1.17;;;;;;;;;;5074451;28;20136;-39
2023/10/12 17:29:35;;;;;;;4.70;1.33;;;;;;;;;;5091960;28;20096;-39
2023/10/12 17:32:02;;;;;;;4.25;0.88;;;;;;;;;;5091617;28;20036;-39
2023/10/12 17:34:30;;;;;;;3.55;0.90;;;;;;;;;;5091913;28;20089;-39
2023/10/12 17:36:58;;;;;;;3.45;0.77;;;;;;;;;;5091817;28;20024;-39
2023/10/12 17:39:28;;;;;;;2.42;0.60;;;;;;;;;;5091980;28;20054;-39
2023/10/12 17:41:56;;;;;;;4.15;1.00;;;;;;;;;;5091640;28;20060;-39
2023/10/12 17:44:23;;;;;;;7.20;0.95;;;;;;;;;;5091630;28;20375;-39
2023/10/12 17:46:52;;;;;;;5.53;0.90;;;;;;;;;;5091610;28;20040;-39
2023/10/12 17:49:23;;;;;;;4.45;1.10;;;;;;;;;;5090923;28;20031;-39